»·PEaware :: N132KT P52-2T1

N132KT :: P52-2T1

FLIGHT INFORMATION

Flight Status: Arrived
Operator: Privately registered:
United States
More flights under this callsign
Pilot: Keith S. (1)
Aircraft: BEECH AIRCRAFT BARON
(BE58)
More flights by this aircraft type
Origin: P52 Cottonwood
United States
Destination: 2T1 Muleshoe Mun
United States
More flights between these airports :: More routes between these airports
Route:
File this flight plan on PilotEdge
Remarks:
Altitude:
(Current/Filed)
9,500ft
Speed:
(Current/Filed)
170kts
Departed: 24-Jun-20 08:23 AM
Arrived: 24-Jun-20 11:05 AM
Distance/Time
Traveled:
466nm/2:42
Distance/Time
To Go:
Arrived

Flight Plot

Page will automatically refresh every two minutes.

Flight plan parsing failed; only flown route is shown


Map Options




Map Legend


Flown Route
Filed Route
Departure Airport
Arrival Airport
Navaid (VOR, NDB)
Fix

Horizontal Profiles

Position Reports

Time Latitude Longitude Heading Altitude Ground
Speed
24-Jun-20 08:17 34.733512 -112.038435 64 3536ft 0kts
24-Jun-20 08:18 34.733512 -112.038435 64 3536ft 0kts
24-Jun-20 08:20 34.733512 -112.038435 64 3536ft 0kts
24-Jun-20 08:20 34.733512 -112.038435 64 3536ft 0kts
24-Jun-20 08:21 34.733454 -112.038257 155 3535ft 9kts
24-Jun-20 08:22 34.732229 -112.036373 157 3534ft 50kts
24-Jun-20 08:23 34.711403 -112.014239 85 3739ft 137kts
24-Jun-20 08:24 34.726552 -111.971173 81 4487ft 138kts
24-Jun-20 08:25 34.727800 -111.924789 92 5167ft 137kts
24-Jun-20 08:26 34.726912 -111.878665 92 5756ft 136kts
24-Jun-20 08:27 34.725924 -111.831434 92 6210ft 143kts
24-Jun-20 08:28 34.724889 -111.782737 92 6681ft 144kts
24-Jun-20 08:29 34.723820 -111.733462 92 7120ft 146kts
24-Jun-20 08:30 34.722722 -111.683744 92 7548ft 147kts
24-Jun-20 08:31 34.721603 -111.634011 92 7960ft 147kts
24-Jun-20 08:32 34.720461 -111.584126 92 8355ft 147kts
24-Jun-20 08:33 34.719296 -111.534149 92 8736ft 147kts
24-Jun-20 08:34 34.718111 -111.484221 92 9099ft 148kts
24-Jun-20 08:35 34.716901 -111.434135 92 9458ft 148kts
24-Jun-20 08:36 34.715595 -111.381382 92 9563ft 164kts
24-Jun-20 08:37 34.714179 -111.324693 92 9540ft 175kts
24-Jun-20 08:38 34.712650 -111.264618 92 9507ft 179kts
24-Jun-20 08:39 34.711072 -111.203829 92 9493ft 179kts
24-Jun-20 08:40 34.709462 -111.143049 92 9470ft 179kts
24-Jun-20 08:41 34.707833 -111.082624 92 9466ft 179kts
24-Jun-20 08:42 34.706174 -111.022207 92 9467ft 178kts
24-Jun-20 08:43 34.704489 -110.961897 92 9467ft 178kts
24-Jun-20 08:44 34.702771 -110.901503 92 9466ft 178kts
24-Jun-20 08:45 34.701025 -110.841150 92 9466ft 179kts
24-Jun-20 08:46 34.699248 -110.780744 92 9466ft 179kts
24-Jun-20 08:47 34.697438 -110.720263 92 9466ft 179kts
24-Jun-20 08:48 34.695603 -110.659974 92 9467ft 178kts
24-Jun-20 08:49 34.693728 -110.599433 92 9473ft 178kts
24-Jun-20 08:50 34.691838 -110.539296 91 9496ft 178kts
24-Jun-20 08:51 34.689912 -110.478906 91 9517ft 178kts
24-Jun-20 08:52 34.687967 -110.418861 91 9538ft 178kts
24-Jun-20 08:53 34.685983 -110.358481 91 9548ft 179kts
24-Jun-20 08:54 34.683953 -110.297651 92 9550ft 180kts
24-Jun-20 08:55 34.681894 -110.236921 92 9550ft 180kts
24-Jun-20 08:56 34.679801 -110.176046 92 9548ft 180kts
24-Jun-20 08:57 34.677669 -110.114915 92 9547ft 180kts
24-Jun-20 08:58 34.675515 -110.054080 92 9549ft 180kts
24-Jun-20 08:59 34.673330 -109.993204 92 9547ft 180kts
24-Jun-20 09:00 34.671109 -109.932164 92 9546ft 180kts
24-Jun-20 09:01 34.668862 -109.871257 92 9543ft 180kts
24-Jun-20 09:02 34.666571 -109.810015 92 9521ft 181kts
24-Jun-20 09:03 34.664260 -109.748993 92 9516ft 180kts
24-Jun-20 09:04 34.661932 -109.688369 92 9514ft 180kts
24-Jun-20 09:05 34.659571 -109.627625 92 9509ft 179kts
24-Jun-20 09:06 34.657181 -109.566950 92 9510ft 179kts
24-Jun-20 09:07 34.654770 -109.506491 92 9511ft 179kts
24-Jun-20 09:08 34.652324 -109.445926 92 9514ft 179kts
24-Jun-20 09:09 34.649847 -109.385349 92 9503ft 179kts
24-Jun-20 09:10 34.647362 -109.325226 92 9508ft 177kts
24-Jun-20 09:11 34.644868 -109.265626 92 9511ft 176kts
24-Jun-20 09:12 34.640579 -109.206669 93 9492ft 176kts
24-Jun-20 09:13 34.637234 -109.147610 94 9508ft 176kts
24-Jun-20 09:14 34.633498 -109.088282 94 9514ft 175kts
24-Jun-20 09:15 34.629709 -109.029228 94 9510ft 175kts
24-Jun-20 09:16 34.625895 -108.970312 94 9517ft 174kts
24-Jun-20 09:17 34.622064 -108.911604 94 9512ft 174kts
24-Jun-20 09:18 34.618199 -108.852782 94 9510ft 174kts
24-Jun-20 09:19 34.614306 -108.793982 94 9511ft 174kts
24-Jun-20 09:20 34.610397 -108.735377 94 9512ft 174kts
24-Jun-20 09:21 34.606474 -108.676913 94 9521ft 173kts
24-Jun-20 09:22 34.602526 -108.618482 94 9531ft 173kts
24-Jun-20 09:23 34.598584 -108.560547 95 9550ft 172kts
24-Jun-20 09:24 34.594635 -108.502745 95 9556ft 172kts
24-Jun-20 09:25 34.590605 -108.444919 95 9556ft 172kts
24-Jun-20 09:26 34.586578 -108.387245 96 9587ft 171kts
24-Jun-20 09:27 34.582564 -108.329536 96 9575ft 172kts
24-Jun-20 09:28 34.578442 -108.271542 97 9596ft 171kts
24-Jun-20 09:29 34.574354 -108.213553 96 9570ft 172kts
24-Jun-20 09:30 34.570203 -108.155557 96 9594ft 171kts
24-Jun-20 09:31 34.566000 -108.097422 97 9580ft 172kts
24-Jun-20 09:32 34.561850 -108.039657 96 9564ft 173kts
24-Jun-20 09:33 34.557611 -107.981678 96 9566ft 173kts
24-Jun-20 09:34 34.553351 -107.923625 96 9596ft 172kts
24-Jun-20 09:35 34.549015 -107.865561 96 9594ft 172kts
24-Jun-20 09:36 34.544707 -107.807268 96 9586ft 172kts
24-Jun-20 09:37 34.540370 -107.749181 97 9561ft 174kts
24-Jun-20 09:38 34.535956 -107.691025 96 9572ft 173kts
24-Jun-20 09:39 34.531563 -107.632586 97 9581ft 172kts
24-Jun-20 09:40 34.527118 -107.574493 96 9541ft 174kts
24-Jun-20 09:41 34.522662 -107.516223 97 9543ft 174kts
24-Jun-20 09:42 34.518102 -107.457781 97 9535ft 174kts
24-Jun-20 09:43 34.513559 -107.399127 97 9516ft 175kts
24-Jun-20 09:44 34.508961 -107.340282 97 9504ft 175kts
24-Jun-20 09:45 34.504295 -107.281116 98 9501ft 175kts
24-Jun-20 09:46 34.499578 -107.221866 97 9487ft 176kts
24-Jun-20 09:47 34.494885 -107.162713 97 9487ft 176kts
24-Jun-20 09:48 34.490142 -107.103553 97 9484ft 176kts
24-Jun-20 09:49 34.485391 -107.044478 97 9479ft 176kts
24-Jun-20 09:50 34.480556 -106.985229 98 9493ft 176kts
24-Jun-20 09:51 34.475731 -106.925943 98 9478ft 178kts
24-Jun-20 09:52 34.470802 -106.865972 98 9491ft 180kts
24-Jun-20 09:53 34.465772 -106.805285 98 9485ft 183kts
24-Jun-20 09:54 34.460731 -106.743911 98 9504ft 183kts
24-Jun-20 09:55 34.455481 -106.681847 98 9499ft 185kts
24-Jun-20 09:56 34.450236 -106.619615 98 9495ft 186kts
24-Jun-20 09:57 34.444932 -106.557182 97 9482ft 187kts
24-Jun-20 09:58 34.439592 -106.494472 97 9495ft 187kts
24-Jun-20 09:59 34.434215 -106.431572 98 9495ft 187kts
24-Jun-20 10:00 34.428770 -106.368666 97 9500ft 187kts
24-Jun-20 10:01 34.423291 -106.305547 98 9500ft 187kts
24-Jun-20 10:02 34.417871 -106.243323 98 9512ft 184kts
24-Jun-20 10:03 34.412268 -106.181439 94 9458ft 185kts
24-Jun-20 10:05 34.406970 -106.119752 95 9506ft 185kts
24-Jun-20 10:06 34.401465 -106.057722 95 9519ft 185kts
24-Jun-20 10:07 34.395886 -105.995519 95 9548ft 184kts
24-Jun-20 10:08 34.390333 -105.933798 94 9579ft 184kts
24-Jun-20 10:09 34.384900 -105.872685 98 9601ft 181kts
24-Jun-20 10:10 34.379337 -105.812256 98 9626ft 180kts
24-Jun-20 10:11 34.373802 -105.751843 98 9630ft 180kts
24-Jun-20 10:12 34.368265 -105.691641 98 9630ft 180kts
24-Jun-20 10:13 34.364787 -105.630874 95 9631ft 181kts
24-Jun-20 10:14 34.361850 -105.570159 95 9620ft 181kts
24-Jun-20 10:15 34.358867 -105.508755 95 9593ft 183kts
24-Jun-20 10:16 34.355838 -105.447165 95 9567ft 184kts
24-Jun-20 10:17 34.352762 -105.385014 95 9543ft 185kts
24-Jun-20 10:18 34.349622 -105.322379 96 9522ft 186kts
24-Jun-20 10:19 34.346452 -105.259850 96 9515ft 186kts
24-Jun-20 10:20 34.343266 -105.197385 96 9506ft 186kts
24-Jun-20 10:21 34.340020 -105.134645 96 9488ft 187kts
24-Jun-20 10:22 34.336739 -105.071716 96 9495ft 186kts
24-Jun-20 10:23 34.333450 -105.008928 96 9476ft 186kts
24-Jun-20 10:23 34.311465 -104.966951 131 9474ft 178kts
24-Jun-20 10:25 34.278332 -104.909623 114 9502ft 180kts
24-Jun-20 10:26 34.266047 -104.850114 103 9488ft 183kts
24-Jun-20 10:26 34.259133 -104.799469 102 9481ft 183kts
24-Jun-20 10:27 34.251320 -104.738650 101 9483ft 183kts
24-Jun-20 10:28 34.243565 -104.677836 101 9485ft 183kts
24-Jun-20 10:29 34.235771 -104.616883 101 9487ft 183kts
24-Jun-20 10:30 34.227936 -104.555907 101 9482ft 183kts
24-Jun-20 10:31 34.220098 -104.495086 102 9482ft 183kts
24-Jun-20 10:32 34.212193 -104.434059 101 9482ft 183kts
24-Jun-20 10:33 34.204277 -104.373160 102 9478ft 184kts
24-Jun-20 10:34 34.196294 -104.312063 102 9477ft 183kts
24-Jun-20 10:35 34.188305 -104.251104 102 9477ft 183kts
24-Jun-20 10:36 34.180332 -104.190450 102 9478ft 183kts
24-Jun-20 10:37 34.172284 -104.129530 102 9480ft 183kts
24-Jun-20 10:38 34.164198 -104.068566 102 9487ft 183kts
24-Jun-20 10:39 34.156070 -104.007512 102 9496ft 184kts
24-Jun-20 10:40 34.147917 -103.946505 102 9505ft 184kts
24-Jun-20 10:41 34.139740 -103.885536 102 9512ft 184kts
24-Jun-20 10:42 34.131483 -103.824226 102 9511ft 185kts
24-Jun-20 10:43 34.123202 -103.762974 102 9511ft 185kts
24-Jun-20 10:44 34.114881 -103.701664 102 9511ft 185kts
24-Jun-20 10:45 34.106516 -103.640267 102 9511ft 185kts
24-Jun-20 10:46 34.098136 -103.579001 102 9511ft 185kts
24-Jun-20 10:47 34.089715 -103.517665 102 9511ft 185kts
24-Jun-20 10:48 34.081258 -103.456305 102 9512ft 185kts
24-Jun-20 10:49 34.072776 -103.394991 102 9511ft 185kts
24-Jun-20 10:50 34.064251 -103.333607 102 9511ft 185kts
24-Jun-20 10:51 34.055711 -103.272350 102 9509ft 185kts
24-Jun-20 10:52 34.062713 -103.210831 78 9508ft 188kts
24-Jun-20 10:53 34.075854 -103.149555 77 9505ft 189kts
24-Jun-20 10:54 34.089096 -103.088523 77 9514ft 187kts
24-Jun-20 10:55 34.102297 -103.027543 77 9512ft 187kts
24-Jun-20 10:56 34.115351 -102.967014 77 9514ft 186kts
24-Jun-20 10:57 34.128379 -102.906568 77 9504ft 186kts
24-Jun-20 10:58 34.141310 -102.846303 77 9509ft 185kts
24-Jun-20 10:59 34.154246 -102.785938 77 9512ft 185kts
24-Jun-20 11:00 34.167139 -102.725546 78 9520ft 185kts
24-Jun-20 11:01 34.179989 -102.665332 78 9508ft 185kts
24-Jun-20 11:02 34.181377 -102.611964 206 8615ft 183kts
24-Jun-20 11:03 34.189244 -102.621576 88 5287ft 142kts
24-Jun-20 11:04 34.185691 -102.637831 256 3770ft 0kts

Navigation Log

Ident Type
Flight plan parsing failed, navigation log unavailable